Aviation Digital Data Service (ADDS)

Output produced by METARs form (0121 UTC 18 December 2017)
found at http://aviationweather.gov/adds/metars/
 
KATL 172336Z 1800/1906 08005KT 6SM BR VCSH BKN020 
     FM180400 08004KT 2SM -DZ BR BKN006 
     FM181200 03003KT 1SM -DZ BR OVC004 
     FM181600 28004KT 6SM BR OVC008 
     FM181900 28006KT P6SM OVC015 
     FM182300 28005KT P6SM FEW020 OVC100